Time;durP1;ratioP1;P1;durP2;ratioP2;P2;SDS_P1;SDS_P2;PMS_P1;PMS_P2;Temp;Humidity;BMP_temperature;BMP_pressure;BME280_temperature;BME280_humidity;BME280_pressure;Samples;Min_cycle;Max_cycle;Signal;HPM_P1;HPM_P2
2023/05/22 00:01:29;;;;;;;22.27;15.52;;;;;;;;;;7589394;19;20026;-72
2023/05/22 00:04:02;;;;;;;22.73;16.55;;;;;;;;;;7596511;19;20077;-72
2023/05/22 00:06:34;;;;;;;21.73;16.13;;;;;;;;;;7601821;19;20022;-71
2023/05/22 00:09:07;;;;;;;21.88;15.57;;;;;;;;;;7601570;19;20902;-73
2023/05/22 00:11:40;;;;;;;21.60;16.40;;;;;;;;;;7594412;19;20050;-74
2023/05/22 00:14:12;;;;;;;23.10;15.57;;;22.30;75.20;;;;;;7592352;19;20605;-73
2023/05/22 00:16:47;;;;;;;21.95;15.15;;;15.00;99.90;;;;;;7578305;19;20020;-72
2023/05/22 00:19:21;;;;;;;21.88;15.00;;;14.40;99.90;;;;;;7597886;19;20836;-73
2023/05/22 00:21:54;;;;;;;25.08;17.02;;;14.40;99.90;;;;;;7583385;19;20018;-71
2023/05/22 00:24:26;;;;;;;24.48;16.02;;;14.30;99.90;;;;;;7593673;19;20412;-73
2023/05/22 00:26:59;;;;;;;22.33;16.48;;;;;;;;;;7586679;19;20731;-72
2023/05/22 00:29:31;;;;;;;22.60;15.52;;;;;;;;;;7590700;19;20018;-72
2023/05/22 00:32:05;;;;;;;23.60;16.50;;;;;;;;;;7584310;19;20573;-71
2023/05/22 00:34:37;;;;;;;18.60;15.15;;;;;;;;;;7588593;19;20318;-73
2023/05/22 00:37:11;;;;;;;20.90;14.70;;;;;;;;;;7590455;19;20027;-73
2023/05/22 00:39:43;;;;;;;24.95;16.95;;;;;;;;;;7601035;19;20026;-72
2023/05/22 00:42:16;;;;;;;20.17;15.93;;;;;;;;;;7587763;19;20079;-73
2023/05/22 00:44:49;;;;;;;20.77;16.00;;;;;;;;;;7592261;19;20011;-74
2023/05/22 00:47:22;;;;;;;23.00;15.43;;;;;;;;;;7588149;19;20684;-73
2023/05/22 00:49:55;;;;;;;;;;;;;;;;;;7598854;19;20015;-72
2023/05/22 00:52:28;;;;;;;22.13;16.27;;;;;;;;;;7586795;19;19926;-73
2023/05/22 00:55:02;;;;;;;26.38;17.35;;;;;;;;;;7586955;19;20088;-73
2023/05/22 00:57:37;;;;;;;23.83;17.95;;;14.30;99.90;;;;;;7590302;19;20018;-72
2023/05/22 01:00:10;;;;;;;23.55;16.33;;;13.90;99.90;;;;;;7591111;19;20051;-73
2023/05/22 01:02:42;;;;;;;25.73;17.25;;;13.90;99.90;;;;;;7596684;19;20014;-74
2023/05/22 01:05:16;;;;;;;25.85;16.33;;;13.90;99.90;;;;;;7589378;19;20014;-71
2023/05/22 01:07:49;;;;;;;34.75;15.90;;;13.90;99.90;;;;;;7591630;19;20022;-72
2023/05/22 01:10:22;;;;;;;25.45;17.33;;;13.80;99.90;;;;;;7583372;19;20049;-73
2023/05/22 01:12:59;;;;;;;24.35;17.33;;;13.80;99.90;;;;;;7576125;19;20015;-72
2023/05/22 01:15:38;;;;;;;24.05;16.10;;;13.70;99.90;;;;;;7576015;19;20497;-73
2023/05/22 01:18:30;;;;;;;24.58;17.15;;;13.70;99.90;;;;;;7584465;19;20031;-73
2023/05/22 01:21:03;;;;;;;23.88;16.98;;;13.60;99.90;;;;;;7596101;19;20050;-72
2023/05/22 01:24:10;;;;;;;22.33;16.65;;;13.60;99.90;;;;;;7583401;19;20015;-73
2023/05/22 01:27:17;;;;;;;22.58;16.42;;;13.70;99.90;;;;;;7596484;19;20022;-73
2023/05/22 01:30:15;;;;;;;23.70;16.92;;;13.60;99.90;;;;;;7591526;19;20014;-72
2023/05/22 01:32:48;;;;;;;20.70;15.75;;;13.60;99.90;;;;;;7583428;19;20014;-73
2023/05/22 01:35:22;;;;;;;20.48;14.02;;;13.70;99.90;;;;;;7588984;19;20017;-73
2023/05/22 01:37:55;;;;;;;23.10;16.33;;;13.60;99.90;;;;;;7597706;19;20018;-74
2023/05/22 01:40:28;;;;;;;21.90;16.52;;;13.50;99.90;;;;;;7583605;19;23075;-73
2023/05/22 01:43:01;;;;;;;27.53;16.73;;;13.30;99.90;;;;;;7587256;19;20025;-72
2023/05/22 01:45:33;;;;;;;22.35;16.17;;;13.30;99.90;;;;;;7588376;19;20021;-72
2023/05/22 01:48:06;;;;;;;21.00;16.27;;;13.30;99.90;;;;;;7597867;19;20015;-71
2023/05/22 01:50:39;;;;;;;25.27;17.67;;;13.40;99.90;;;;;;7598789;19;20022;-74
2023/05/22 01:53:32;;;;;;;28.90;19.10;;;13.30;99.90;;;;;;7603335;19;20360;-74
2023/05/22 01:56:11;;;;;;;26.02;17.88;;;13.10;99.90;;;;;;7605986;19;20018;-72
2023/05/22 01:58:59;;;;;;;23.80;16.30;;;13.00;99.90;;;;;;7602712;19;20014;-72
2023/05/22 02:01:36;;;;;;;26.60;17.30;;;13.00;99.90;;;;;;7590048;19;20022;-71
2023/05/22 02:04:10;;;;;;;23.63;17.30;;;12.90;99.90;;;;;;7602857;19;20024;-72
2023/05/22 02:06:43;;;;;;;28.25;17.15;;;12.90;99.90;;;;;;7601929;19;20060;-72
2023/05/22 02:09:17;;;;;;;23.73;17.77;;;12.90;99.90;;;;;;7603169;19;20022;-72
2023/05/22 02:11:49;;;;;;;;;;;13.00;99.90;;;;;;7605119;19;20022;-74
2023/05/22 02:14:21;;;;;;;23.02;17.45;;;13.00;99.90;;;;;;7594075;19;19918;-73
2023/05/22 02:16:55;;;;;;;26.37;18.10;;;13.00;99.90;;;;;;7598739;19;20026;-74
2023/05/22 02:19:28;;;;;;;26.15;17.02;;;12.90;99.90;;;;;;7594406;19;20014;-73
2023/05/22 02:22:00;;;;;;;24.88;17.63;;;12.90;99.90;;;;;;7600279;19;20967;-73
2023/05/22 02:24:35;;;;;;;27.17;17.95;;;12.90;99.90;;;;;;7602612;19;20715;-73
2023/05/22 02:27:08;;;;;;;24.55;16.63;;;12.90;99.90;;;;;;7596141;19;20018;-73
2023/05/22 02:29:41;;;;;;;22.73;15.90;;;12.90;99.90;;;;;;7582898;19;20018;-71
2023/05/22 02:32:13;;;;;;;22.02;16.50;;;13.00;99.90;;;;;;7587130;19;20137;-73
2023/05/22 02:34:47;;;;;;;24.63;18.20;;;12.90;99.90;;;;;;7594095;19;20026;-73
2023/05/22 02:37:19;;;;;;;26.45;16.92;;;12.90;99.90;;;;;;7593939;19;20022;-73
2023/05/22 02:39:51;;;;;;;27.40;18.15;;;12.90;99.90;;;;;;7574938;19;20019;-74
2023/05/22 02:42:24;;;;;;;31.42;19.17;;;12.80;99.90;;;;;;7582386;19;20025;-72
2023/05/22 02:44:56;;;;;;;26.48;18.98;;;12.80;99.90;;;;;;7597411;19;20022;-72
2023/05/22 02:47:28;;;;;;;29.08;18.05;;;12.70;99.90;;;;;;7595570;19;20022;-73
2023/05/22 02:50:01;;;;;;;24.50;18.13;;;12.70;99.90;;;;;;7589879;19;20018;-72
2023/05/22 02:52:38;;;;;;;26.50;17.52;;;12.70;99.90;;;;;;7582222;19;20407;-72
2023/05/22 02:55:10;;;;;;;;;;;12.70;99.90;;;;;;7589366;19;20022;-72
2023/05/22 02:57:42;;;;;;;25.83;17.38;;;12.70;99.90;;;;;;7584056;19;19976;-72
2023/05/22 03:00:15;;;;;;;25.08;17.15;;;12.70;99.90;;;;;;7579139;19;20022;-72
2023/05/22 03:02:47;;;;;;;25.35;16.05;;;12.70;99.90;;;;;;7600809;19;20479;-74
2023/05/22 03:05:20;;;;;;;25.85;17.15;;;12.70;99.90;;;;;;7604826;19;20052;-72
2023/05/22 03:07:52;;;;;;;31.80;17.00;;;12.70;99.90;;;;;;7604694;19;20047;-74
2023/05/22 03:10:24;;;;;;;23.33;16.30;;;12.70;99.90;;;;;;7601954;19;20018;-72
2023/05/22 03:12:57;;;;;;;26.87;16.70;;;12.60;99.90;;;;;;7590377;19;20151;-73
2023/05/22 03:15:29;;;;;;;23.52;16.80;;;12.50;99.90;;;;;;7598356;19;20022;-71
2023/05/22 03:18:08;;;;;;;22.98;15.68;;;12.60;99.90;;;;;;7601772;19;20010;-73
2023/05/22 03:20:42;;;;;;;27.05;17.70;;;12.60;99.90;;;;;;7588313;19;20023;-74
2023/05/22 03:23:15;;;;;;;25.33;17.63;;;12.50;99.90;;;;;;7593565;19;20111;-72
2023/05/22 03:25:48;;;;;;;29.33;17.00;;;12.30;99.90;;;;;;7600162;19;20022;-72
2023/05/22 03:28:20;;;;;;;25.13;17.00;;;12.40;99.90;;;;;;7597709;19;20019;-73
2023/05/22 03:30:53;;;;;;;23.30;16.83;;;12.40;99.90;;;;;;7591644;19;20018;-72
2023/05/22 03:33:30;;;;;;;27.90;18.20;;;12.40;99.90;;;;;;7595296;19;20605;-73
2023/05/22 03:36:03;;;;;;;24.20;16.38;;;12.30;99.90;;;;;;7600343;19;20014;-72
2023/05/22 03:38:36;;;;;;;24.65;18.13;;;12.40;99.90;;;;;;7601611;19;20108;-73
2023/05/22 03:41:08;;;;;;;26.25;15.98;;;12.40;99.90;;;;;;7600027;19;20893;-72
2023/05/22 03:43:40;;;;;;;26.83;16.45;;;12.50;99.90;;;;;;7600161;19;20033;-73
2023/05/22 03:46:16;;;;;;;24.85;16.08;;;12.60;99.90;;;;;;7598680;19;20014;-74
2023/05/22 03:48:48;;;;;;;23.03;15.67;;;12.60;99.90;;;;;;7599571;19;20093;-73
2023/05/22 03:51:20;;;;;;;22.75;15.60;;;12.60;99.90;;;;;;7597136;19;20017;-73
2023/05/22 03:53:52;;;;;;;24.55;17.25;;;12.60;99.90;;;;;;7586187;19;20585;-73
2023/05/22 03:56:25;;;;;;;23.30;16.05;;;12.60;99.90;;;;;;7583186;19;20025;-72
2023/05/22 03:58:58;;;;;;;23.55;14.82;;;12.60;99.90;;;;;;7595338;19;20022;-72
2023/05/22 04:01:31;;;;;;;22.17;14.55;;;12.60;99.90;;;;;;7586812;19;20566;-73
2023/05/22 04:04:04;;;;;;;22.50;14.90;;;12.60;99.90;;;;;;7585599;19;20018;-72
2023/05/22 04:06:41;;;;;;;20.30;14.25;;;12.50;99.90;;;;;;7590647;19;20028;-74
2023/05/22 04:09:16;;;;;;;19.85;14.43;;;12.50;99.90;;;;;;7592893;19;20377;-72
2023/05/22 04:11:49;;;;;;;18.13;12.52;;;12.60;99.90;;;;;;7595364;19;20028;-74
2023/05/22 04:14:21;;;;;;;21.83;13.85;;;12.60;99.90;;;;;;7594041;19;20828;-74
2023/05/22 04:16:53;;;;;;;18.42;13.80;;;12.70;99.90;;;;;;7592182;19;20014;-74
2023/05/22 04:19:26;;;;;;;19.35;12.80;;;12.60;99.90;;;;;;7591406;19;20885;-73
2023/05/22 04:21:59;;;;;;;18.52;12.98;;;12.60;99.90;;;;;;7598641;19;20011;-72
2023/05/22 04:24:32;;;;;;;18.80;13.27;;;12.70;99.90;;;;;;7584822;19;20413;-74
2023/05/22 04:27:05;;;;;;;16.73;11.93;;;12.70;99.90;;;;;;7587776;19;20021;-74
2023/05/22 04:29:40;;;;;;;18.13;13.05;;;12.70;99.90;;;;;;7581464;19;20528;-73
2023/05/22 04:32:16;;;;;;;21.90;13.70;;;12.80;99.90;;;;;;7581973;19;20007;-72
2023/05/22 04:34:49;;;;;;;18.00;13.57;;;12.80;99.90;;;;;;7578643;19;20022;-73
2023/05/22 04:37:23;;;;;;;18.67;13.52;;;12.90;99.90;;;;;;7584134;19;20014;-75
2023/05/22 04:39:57;;;;;;;17.77;12.55;;;12.90;99.90;;;;;;7584653;19;20027;-74
2023/05/22 04:42:29;;;;;;;20.50;13.55;;;12.90;99.90;;;;;;7583091;19;20022;-73
2023/05/22 04:45:02;;;;;;;17.83;13.13;;;12.90;99.90;;;;;;7604010;19;20530;-73
2023/05/22 04:47:37;;;;;;;18.25;13.52;;;13.00;99.90;;;;;;7594786;19;20505;-72
2023/05/22 04:50:13;;;;;;;19.48;12.43;;;13.00;99.90;;;;;;7592674;19;20914;-73
2023/05/22 04:52:46;;;;;;;17.90;12.25;;;13.00;99.90;;;;;;7586219;19;20018;-72
2023/05/22 04:55:19;;;;;;;18.88;12.40;;;13.20;99.90;;;;;;7581644;19;20053;-72
2023/05/22 04:57:52;;;;;;;18.27;11.77;;;13.30;99.90;;;;;;7574246;19;20022;-74
2023/05/22 05:00:27;;;;;;;17.17;12.05;;;13.40;99.90;;;;;;7576762;19;20022;-71
2023/05/22 05:03:01;;;;;;;17.20;11.75;;;13.50;99.90;;;;;;7572527;19;20102;-75
2023/05/22 05:05:34;;;;;;;16.38;11.57;;;13.60;99.90;;;;;;7538751;19;20022;-73
2023/05/22 05:08:06;;;;;;;17.63;11.90;;;13.70;99.90;;;;;;7580079;19;20408;-75
2023/05/22 05:10:39;;;;;;;18.20;11.82;;;13.80;99.90;;;;;;7583006;19;20034;-74
2023/05/22 05:13:11;;;;;;;15.95;11.55;;;13.90;99.90;;;;;;7585632;19;20014;-73
2023/05/22 05:15:44;;;;;;;17.85;11.18;;;14.10;99.90;;;;;;7575897;19;20118;-72
2023/05/22 05:18:18;;;;;;;16.45;11.18;;;14.30;99.90;;;;;;7592305;19;20086;-73
2023/05/22 05:20:50;;;;;;;15.00;10.77;;;14.30;99.90;;;;;;7517570;19;22385;-74
2023/05/22 05:23:23;;;;;;;16.88;10.60;;;14.50;99.90;;;;;;7559927;19;20020;-77
2023/05/22 05:25:55;;;;;;;15.95;10.68;;;14.70;99.90;;;;;;7563470;19;20021;-76
2023/05/22 05:28:28;;;;;;;16.90;10.32;;;14.80;99.90;;;;;;7582394;19;20522;-76
2023/05/22 05:31:01;;;;;;;14.37;10.60;;;14.90;99.90;;;;;;7561978;19;25817;-76
2023/05/22 05:33:51;;;;;;;19.27;11.85;;;15.00;99.90;;;;;;7582273;19;20022;-76
2023/05/22 05:36:44;;;;;;;15.95;10.70;;;15.10;99.90;;;;;;7593858;19;20024;-76
2023/05/22 05:39:17;;;;;;;16.88;11.55;;;15.20;99.90;;;;;;7599107;19;20440;-76
2023/05/22 05:41:49;;;;;;;17.42;12.35;;;15.20;99.90;;;;;;7595933;19;20524;-76
2023/05/22 05:44:22;;;;;;;14.43;11.02;;;15.30;99.90;;;;;;7591480;19;20099;-76
2023/05/22 05:46:56;;;;;;;16.63;11.20;;;15.50;99.90;;;;;;7591828;19;20014;-76
2023/05/22 05:49:30;;;;;;;17.20;9.73;;;15.60;99.90;;;;;;7596393;19;20033;-76
2023/05/22 05:52:06;;;;;;;13.23;9.85;;;15.80;99.90;;;;;;7590500;19;20045;-76
2023/05/22 05:54:45;;;;;;;19.52;10.20;;;15.90;99.90;;;;;;7599939;19;20010;-76
2023/05/22 05:57:20;;;;;;;13.95;9.70;;;16.00;99.90;;;;;;7601756;19;20025;-76
2023/05/22 05:59:54;;;;;;;17.00;11.00;;;16.20;99.90;;;;;;7595648;19;20014;-76
2023/05/22 06:02:44;;;;;;;14.95;10.38;;;16.30;99.90;;;;;;7598732;19;20946;-76
2023/05/22 06:05:31;;;;;;;17.92;9.80;;;16.50;99.90;;;;;;7591075;19;20048;-76
2023/05/22 06:08:15;;;;;;;19.38;9.35;;;16.70;99.90;;;;;;7597883;19;20011;-76
2023/05/22 06:10:47;;;;;;;19.00;9.88;;;16.90;99.90;;;;;;7596144;19;20022;-77
2023/05/22 06:13:35;;;;;;;17.63;9.88;;;17.10;99.90;;;;;;7596005;19;20066;-77
2023/05/22 06:16:08;;;;;;;18.92;9.15;;;17.30;99.90;;;;;;7600013;19;20692;-76
2023/05/22 06:18:40;;;;;;;19.27;9.25;;;17.50;99.90;;;;;;7601341;19;20028;-76
2023/05/22 06:21:12;;;;;;;15.73;8.90;;;17.60;99.90;;;;;;7587083;19;20022;-76
2023/05/22 06:23:45;;;;;;;13.45;9.30;;;17.70;99.90;;;;;;7595647;19;20023;-76
2023/05/22 06:26:17;;;;;;;15.00;9.85;;;17.90;99.90;;;;;;7603038;19;20527;-77
2023/05/22 06:28:50;;;;;;;16.75;10.10;;;18.00;99.90;;;;;;7598914;19;20106;-77
2023/05/22 06:31:25;;;;;;;14.23;8.85;;;18.20;98.10;;;;;;7597914;19;20018;-76
2023/05/22 06:34:00;;;;;;;14.95;9.50;;;18.30;96.80;;;;;;7605048;19;20011;-77
2023/05/22 06:36:34;;;;;;;13.73;9.45;;;18.40;96.20;;;;;;7604106;19;20052;-77
2023/05/22 06:39:07;;;;;;;16.83;8.38;;;18.50;96.40;;;;;;7605334;19;20018;-77
2023/05/22 06:42:09;;;;;;;11.82;8.18;;;18.60;95.20;;;;;;7605788;19;20022;-77
2023/05/22 06:45:00;;;;;;;13.75;8.60;;;18.80;95.00;;;;;;7613327;19;20050;-78
2023/05/22 06:47:40;;;;;;;14.10;8.98;;;18.90;94.80;;;;;;7612513;19;20039;-77
2023/05/22 06:50:13;;;;;;;11.30;8.40;;;18.90;93.80;;;;;;7605108;19;20397;-77
2023/05/22 06:52:46;;;;;;;15.15;9.02;;;19.00;92.80;;;;;;7606362;19;20022;-77
2023/05/22 06:55:20;;;;;;;12.25;8.55;;;19.10;92.90;;;;;;7607833;19;20034;-77
2023/05/22 06:58:05;;;;;;;16.27;8.20;;;19.10;93.10;;;;;;7610718;19;20044;-78
2023/05/22 07:00:39;;;;;;;15.65;9.57;;;19.30;92.00;;;;;;7603317;19;20018;-77
2023/05/22 07:03:20;;;;;;;11.65;8.50;;;19.30;92.20;;;;;;7608029;19;20017;-77
2023/05/22 07:06:11;;;;;;;11.90;8.20;;;19.40;91.20;;;;;;7598690;19;20018;-78
2023/05/22 07:08:43;;;;;;;10.50;9.02;;;19.50;91.70;;;;;;7603347;19;20014;-77
2023/05/22 07:11:15;;;;;;;11.40;8.65;;;19.50;91.40;;;;;;7608685;19;20014;-76
2023/05/22 07:13:48;;;;;;;12.68;8.88;;;19.60;92.00;;;;;;7605828;19;20093;-76
2023/05/22 07:16:22;;;;;;;13.43;8.82;;;19.80;91.70;;;;;;7600534;19;20506;-78
2023/05/22 07:18:54;;;;;;;;;;;19.90;91.70;;;;;;7606573;19;20015;-77
2023/05/22 07:21:29;;;;;;;13.13;9.05;;;20.00;91.60;;;;;;7594848;19;19918;-77
2023/05/22 07:24:07;;;;;;;13.93;9.55;;;20.20;91.30;;;;;;7610249;19;20021;-78
2023/05/22 07:26:45;;;;;;;11.70;9.02;;;20.20;91.60;;;;;;7604792;19;20504;-78
2023/05/22 07:29:18;;;;;;;13.43;8.65;;;20.40;90.90;;;;;;7604525;19;20018;-77
2023/05/22 07:31:55;;;;;;;13.35;9.02;;;20.50;91.10;;;;;;7603767;19;20019;-77
2023/05/22 07:34:33;;;;;;;15.48;9.52;;;20.60;90.90;;;;;;7605098;19;20026;-78
2023/05/22 07:37:12;;;;;;;11.23;8.95;;;20.50;90.30;;;;;;7605243;19;20025;-78
2023/05/22 07:39:46;;;;;;;12.10;8.93;;;20.60;90.40;;;;;;7604768;19;20014;-77
2023/05/22 07:42:20;;;;;;;15.73;9.75;;;20.70;90.60;;;;;;7607059;19;20052;-78
2023/05/22 07:44:57;;;;;;;11.98;9.25;;;20.90;90.60;;;;;;7601394;19;20550;-77
2023/05/22 07:47:29;;;;;;;16.45;9.25;;;20.90;89.40;;;;;;7600497;19;20018;-77
2023/05/22 07:50:03;;;;;;;11.32;9.23;;;21.00;89.00;;;;;;7604205;19;20456;-78
2023/05/22 07:52:38;;;;;;;13.45;10.18;;;21.10;90.00;;;;;;7596142;19;20103;-77
2023/05/22 07:55:11;;;;;;;12.53;9.93;;;21.00;87.30;;;;;;7607652;19;20642;-77
2023/05/22 07:57:46;;;;;;;15.95;9.93;;;21.20;88.50;;;;;;7601515;19;20094;-77
2023/05/22 08:00:27;;;;;;;16.27;9.85;;;21.30;88.30;;;;;;7607593;19;20010;-77
2023/05/22 08:02:59;;;;;;;17.52;9.50;;;21.30;87.50;;;;;;7608714;19;20051;-77
2023/05/22 08:05:32;;;;;;;11.82;9.77;;;21.30;87.30;;;;;;7601662;19;20018;-78
2023/05/22 08:08:04;;;;;;;14.10;9.52;;;21.20;86.60;;;;;;7607146;19;20703;-77
2023/05/22 08:10:37;;;;;;;13.57;9.60;;;21.20;87.00;;;;;;7606409;19;20026;-77
2023/05/22 08:13:12;;;;;;;16.63;10.10;;;21.30;87.40;;;;;;7610904;19;20098;-76
2023/05/22 08:15:44;;;;;;;13.82;9.95;;;21.40;86.00;;;;;;7606104;19;20333;-77
2023/05/22 08:18:16;;;;;;;18.50;10.80;;;21.30;86.70;;;;;;7610159;19;20019;-77
2023/05/22 08:20:51;;;;;;;18.33;10.10;;;21.40;85.40;;;;;;7602057;19;20018;-76
2023/05/22 08:23:25;;;;;;;18.63;10.25;;;21.50;85.80;;;;;;7607587;19;20094;-77
2023/05/22 08:25:57;;;;;;;16.95;9.93;;;21.80;86.80;;;;;;7605913;19;20797;-78
2023/05/22 08:28:30;;;;;;;12.68;9.38;;;21.80;85.90;;;;;;7612628;19;20089;-78
2023/05/22 08:31:05;;;;;;;14.63;10.27;;;21.90;85.60;;;;;;7605865;19;21123;-77
2023/05/22 08:33:38;;;;;;;13.18;9.60;;;22.10;84.80;;;;;;7612144;19;20014;-77
2023/05/22 08:36:12;;;;;;;15.13;9.10;;;22.20;85.40;;;;;;7610458;19;20015;-77
2023/05/22 08:38:44;;;;;;;14.35;9.90;;;22.30;85.40;;;;;;7611057;19;20673;-77
2023/05/22 08:41:16;;;;;;;14.40;10.25;;;22.30;85.30;;;;;;7601002;19;20014;-77
2023/05/22 08:43:48;;;;;;;13.18;9.73;;;22.40;85.30;;;;;;7609529;19;20018;-77
2023/05/22 08:46:25;;;;;;;16.83;10.88;;;22.40;83.80;;;;;;7613278;19;20025;-77
2023/05/22 08:48:58;;;;;;;14.18;11.38;;;22.20;83.50;;;;;;7607645;19;20018;-77
2023/05/22 08:51:33;;;;;;;16.57;11.00;;;22.10;83.90;;;;;;7608816;19;20014;-76
2023/05/22 08:54:08;;;;;;;14.02;10.40;;;22.10;84.30;;;;;;7601131;19;20105;-77
2023/05/22 08:56:41;;;;;;;15.40;10.52;;;22.20;83.40;;;;;;7605331;19;20010;-77
2023/05/22 08:59:28;;;;;;;14.30;10.75;;;22.30;85.40;;;;;;7602464;19;20026;-76
2023/05/22 09:02:03;;;;;;;22.45;11.45;;;22.60;83.90;;;;;;7602148;19;20049;-76
2023/05/22 09:04:40;;;;;;;16.73;10.73;;;22.50;82.30;;;;;;7585796;19;20082;-74
2023/05/22 09:07:13;;;;;;;13.95;10.57;;;22.50;82.30;;;;;;7596145;19;20588;-74
2023/05/22 09:09:45;;;;;;;13.15;10.32;;;22.40;83.20;;;;;;7592878;19;20022;-73
2023/05/22 09:12:18;;;;;;;17.45;11.15;;;22.50;83.50;;;;;;7603117;19;20019;-74
2023/05/22 09:14:50;;;;;;;16.45;10.32;;;22.60;82.80;;;;;;7601458;19;20018;-74
2023/05/22 09:17:25;;;;;;;14.85;10.13;;;22.70;83.20;;;;;;7600206;19;20022;-74
2023/05/22 09:19:59;;;;;;;15.20;9.93;;;22.80;81.70;;;;;;7597316;19;20010;-76
2023/05/22 09:22:39;;;;;;;13.95;10.30;;;22.90;81.60;;;;;;7600750;19;20097;-74
2023/05/22 09:25:18;;;;;;;13.10;10.50;;;22.80;81.80;;;;;;7603743;19;20021;-73
2023/05/22 09:27:50;;;;;;;16.38;10.02;;;22.90;82.70;;;;;;7602534;19;20029;-74
2023/05/22 09:30:27;;;;;;;14.70;10.13;;;23.00;81.30;;;;;;7602603;19;20011;-73
2023/05/22 09:33:00;;;;;;;16.85;10.52;;;23.10;81.20;;;;;;7599237;19;20492;-75
2023/05/22 09:35:32;;;;;;;13.15;10.05;;;23.10;79.80;;;;;;7598405;19;20532;-74
2023/05/22 09:38:05;;;;;;;13.13;10.30;;;23.20;78.80;;;;;;7595608;19;20030;-76
2023/05/22 09:40:39;;;;;;;13.38;9.98;;;23.10;79.40;;;;;;7605260;19;20361;-73
2023/05/22 09:43:16;;;;;;;16.13;10.75;;;23.00;79.70;;;;;;7602417;19;20484;-74
2023/05/22 09:45:56;;;;;;;13.07;10.48;;;23.20;79.30;;;;;;7606829;19;20058;-73
2023/05/22 09:48:35;;;;;;;17.85;10.90;;;23.20;79.30;;;;;;7600999;19;20011;-73
2023/05/22 09:51:09;;;;;;;11.88;9.82;;;23.40;79.00;;;;;;7595335;19;20029;-76
2023/05/22 09:53:43;;;;;;;14.05;8.85;;;23.40;79.10;;;;;;7599222;19;20027;-74
2023/05/22 09:56:17;;;;;;;23.15;9.90;;;23.60;79.80;;;;;;7606977;19;20041;-74
2023/05/22 09:59:04;;;;;;;11.25;9.23;;;23.60;78.10;;;;;;7598844;19;20019;-74
2023/05/22 10:01:38;;;;;;;13.55;9.93;;;23.70;75.80;;;;;;7604734;19;20011;-74
2023/05/22 10:04:15;;;;;;;16.65;9.57;;;23.80;74.50;;;;;;7609657;19;20499;-72
2023/05/22 10:06:53;;;;;;;10.80;9.25;;;23.80;73.30;;;;;;7604513;19;20025;-75
2023/05/22 10:09:30;;;;;;;14.43;9.02;;;23.90;74.40;;;;;;7606996;19;20497;-76
2023/05/22 10:12:06;;;;;;;13.70;9.77;;;24.00;74.50;;;;;;7610217;19;20026;-75
2023/05/22 10:14:38;;;;;;;13.25;10.18;;;24.00;73.30;;;;;;7610466;19;20022;-74
2023/05/22 10:17:12;;;;;;;14.80;9.90;;;24.20;74.10;;;;;;7610891;19;20026;-76
2023/05/22 10:19:45;;;;;;;19.83;10.63;;;25.00;73.00;;;;;;7607507;19;20018;-76
2023/05/22 10:22:21;;;;;;;13.57;10.30;;;25.60;70.80;;;;;;7606302;19;20107;-74
2023/05/22 10:24:54;;;;;;;13.88;9.85;;;26.10;70.50;;;;;;7606376;19;21536;-75
2023/05/22 10:27:26;;;;;;;14.93;10.00;;;26.60;71.40;;;;;;7606850;19;20018;-76
2023/05/22 10:30:20;;;;;;;14.95;9.70;;;26.70;70.30;;;;;;7605215;19;20018;-74
2023/05/22 10:33:31;;;;;;;13.63;9.98;;;27.00;68.90;;;;;;7606895;19;20110;-74
2023/05/22 10:36:07;;;;;;;12.45;9.15;;;26.80;66.90;;;;;;7602015;19;20022;-75
2023/05/22 10:38:54;;;;;;;13.30;9.80;;;27.00;66.70;;;;;;7608432;19;20014;-74
2023/05/22 10:41:27;;;;;;;10.38;8.63;;;;;;;;;;7605690;19;20019;-76
2023/05/22 10:44:01;;;;;;;14.52;10.32;;;27.20;63.80;;;;;;7607855;19;20023;-74
2023/05/22 10:46:34;;;;;;;13.98;10.23;;;27.30;64.40;;;;;;7606284;19;20118;-74
2023/05/22 10:49:07;;;;;;;;;;;27.50;65.30;;;;;;7609862;19;20019;-73
2023/05/22 10:51:39;;;;;;;12.75;9.57;;;27.90;63.90;;;;;;7602011;19;19956;-74
2023/05/22 10:54:12;;;;;;;28.00;10.98;;;28.20;64.30;;;;;;7605583;19;20830;-76
2023/05/22 10:56:45;;;;;;;13.10;10.30;;;28.20;62.50;;;;;;7603960;19;20021;-76
2023/05/22 10:59:32;;;;;;;12.90;10.02;;;27.60;62.00;;;;;;7609936;19;20026;-74
2023/05/22 11:02:05;;;;;;;14.75;10.45;;;27.40;64.20;;;;;;7604804;19;20056;-74
2023/05/22 11:04:40;;;;;;;12.50;9.95;;;27.30;63.50;;;;;;7608498;19;20477;-74
2023/05/22 11:07:14;;;;;;;21.17;10.35;;;27.50;65.00;;;;;;7602186;19;20022;-75
2023/05/22 11:09:47;;;;;;;13.02;9.45;;;27.40;64.20;;;;;;7611609;19;20022;-74
2023/05/22 11:12:27;;;;;;;13.63;9.68;;;27.90;62.30;;;;;;7607181;19;20025;-73
2023/05/22 11:15:09;;;;;;;13.82;10.35;;;27.90;63.20;;;;;;7603748;19;20605;-73
2023/05/22 11:17:49;;;;;;;14.70;9.43;;;28.20;61.80;;;;;;7580992;19;20021;-75
2023/05/22 11:20:29;;;;;;;18.80;11.05;;;28.40;62.00;;;;;;7557078;19;20015;-76
2023/05/22 11:23:05;;;;;;;15.20;11.15;;;28.40;63.00;;;;;;7585333;19;20018;-77
2023/05/22 11:25:40;;;;;;;16.02;10.88;;;28.40;61.40;;;;;;7569761;19;20018;-78
2023/05/22 11:28:12;;;;;;;12.77;10.70;;;28.80;61.00;;;;;;7550272;19;20460;-73
2023/05/22 11:30:45;;;;;;;12.70;10.73;;;29.20;59.80;;;;;;7569219;19;20068;-73
2023/05/22 11:33:18;;;;;;;13.27;10.82;;;29.40;59.30;;;;;;7587327;19;20283;-74
2023/05/22 11:35:53;;;;;;;12.88;9.82;;;29.40;59.90;;;;;;7590779;19;20081;-75
2023/05/22 11:38:26;;;;;;;14.32;9.68;;;29.40;60.00;;;;;;7593499;19;20358;-75
2023/05/22 11:40:58;;;;;;;11.95;10.73;;;29.80;60.70;;;;;;7569626;19;21128;-74
2023/05/22 11:43:33;;;;;;;11.00;9.83;;;29.90;57.10;;;;;;7588929;19;20007;-74
2023/05/22 11:46:07;;;;;;;14.40;10.55;;;29.90;56.50;;;;;;7593203;19;20018;-74
2023/05/22 11:48:41;;;;;;;15.23;10.18;;;30.10;57.50;;;;;;7603908;19;20014;-73
2023/05/22 11:51:17;;;;;;;13.70;10.10;;;30.00;58.30;;;;;;7582530;19;20015;-75
2023/05/22 11:53:49;;;;;;;14.15;10.88;;;30.30;56.80;;;;;;7594350;19;20038;-71
2023/05/22 11:56:22;;;;;;;13.02;10.02;;;30.30;56.70;;;;;;7606340;19;20354;-75
2023/05/22 11:58:55;;;;;;;16.07;11.30;;;29.90;57.20;;;;;;7591878;19;20023;-74
2023/05/22 12:01:27;;;;;;;17.08;11.35;;;29.90;55.70;;;;;;7584273;19;20380;-73
2023/05/22 12:03:59;;;;;;;14.97;11.70;;;30.30;56.00;;;;;;7587011;19;21125;-75
2023/05/22 12:06:32;;;;;;;18.33;12.27;;;30.60;56.00;;;;;;7590902;19;20369;-73
2023/05/22 12:09:06;;;;;;;29.65;12.63;;;30.90;57.00;;;;;;7574451;19;20026;-75
2023/05/22 12:11:38;;;;;;;16.67;13.00;;;30.70;57.80;;;;;;7590630;19;20924;-71
2023/05/22 12:14:11;;;;;;;17.70;11.90;;;30.90;57.20;;;;;;7577059;19;20026;-72
2023/05/22 12:16:44;;;;;;;;;;;30.80;57.10;;;;;;7586359;19;20015;-73
2023/05/22 12:19:16;;;;;;;16.77;13.03;;;30.70;56.90;;;;;;7575736;19;20594;-74
2023/05/22 12:21:50;;;;;;;15.82;12.48;;;30.90;55.70;;;;;;7575823;19;21034;-72
2023/05/22 12:24:22;;;;;;;13.93;11.27;;;30.80;55.40;;;;;;7592226;19;20044;-73
2023/05/22 12:26:55;;;;;;;20.17;12.00;;;30.70;56.20;;;;;;7587594;19;20025;-74
2023/05/22 12:29:27;;;;;;;15.85;12.48;;;30.50;57.40;;;;;;7598356;19;20925;-72
2023/05/22 12:32:09;;;;;;;17.10;11.60;;;30.70;57.40;;;;;;7582444;19;20019;-72
2023/05/22 12:34:46;;;;;;;13.77;10.68;;;30.40;57.10;;;;;;7575692;19;20010;-72
2023/05/22 12:37:26;;;;;;;15.07;12.73;;;30.30;58.20;;;;;;7588424;19;21069;-74
2023/05/22 12:40:02;;;;;;;13.60;11.38;;;30.40;56.80;;;;;;7552309;19;20057;-73
2023/05/22 12:42:35;;;;;;;17.23;12.07;;;30.00;57.90;;;;;;7543532;19;20011;-74
2023/05/22 12:45:08;;;;;;;15.68;11.88;;;30.40;57.60;;;;;;7576786;19;20022;-74
2023/05/22 12:47:40;;;;;;;15.02;11.75;;;30.50;57.40;;;;;;7560341;19;20610;-71
2023/05/22 12:50:13;;;;;;;15.13;12.30;;;30.60;57.50;;;;;;7572135;19;20025;-74
2023/05/22 12:52:45;;;;;;;15.27;12.45;;;30.60;56.90;;;;;;7551398;19;20022;-72
2023/05/22 12:55:17;;;;;;;18.43;11.53;;;31.10;55.50;;;;;;7571898;19;20014;-73
2023/05/22 12:57:50;;;;;;;15.10;11.13;;;31.10;55.80;;;;;;7574803;19;20561;-74
2023/05/22 13:00:22;;;;;;;17.40;11.27;;;31.30;56.70;;;;;;7563915;19;20025;-73
2023/05/22 13:02:55;;;;;;;14.15;11.20;;;31.40;54.60;;;;;;7508083;19;20117;-72
2023/05/22 13:05:27;;;;;;;13.65;10.85;;;31.70;54.00;;;;;;7585980;19;20018;-71
2023/05/22 13:07:59;;;;;;;13.40;11.23;;;31.80;54.20;;;;;;7577972;19;21774;-72
2023/05/22 13:10:32;;;;;;;14.63;11.70;;;31.60;52.10;;;;;;7566747;19;21523;-71
2023/05/22 13:13:04;;;;;;;13.82;11.55;;;31.60;52.90;;;;;;7577245;19;20970;-74
2023/05/22 13:15:36;;;;;;;16.73;11.48;;;31.70;53.00;;;;;;7578895;19;20098;-72
2023/05/22 13:18:10;;;;;;;17.10;10.13;;;31.50;51.60;;;;;;7584099;19;20025;-72